createdAt,value
2019-02-14T00:00:41.100Z,1006.66
2019-02-14T00:01:41.097Z,1006.67
2019-02-14T00:02:20.099Z,1006.62
2019-02-14T00:03:41.589Z,1006.65
2019-02-14T00:04:20.591Z,1006.71
2019-02-14T00:05:45.093Z,1006.67
2019-02-14T00:06:20.597Z,1006.69
2019-02-14T00:07:41.155Z,1006.68
2019-02-14T00:08:20.244Z,1006.66
2019-02-14T00:09:42.090Z,1006.66
2019-02-14T00:10:25.090Z,1006.70
2019-02-14T00:11:21.099Z,1006.68
2019-02-14T00:12:21.592Z,1006.67
2019-02-14T00:13:42.590Z,1006.66
2019-02-14T00:14:42.597Z,1006.65
2019-02-14T00:15:21.589Z,1006.63
2019-02-14T00:16:25.096Z,1006.65
2019-02-14T00:17:43.090Z,1006.60
2019-02-14T00:18:22.123Z,1006.64
2019-02-14T00:19:22.090Z,1006.66
2019-02-14T00:20:22.590Z,1006.62
2019-02-14T00:21:47.089Z,1006.66
2019-02-14T00:22:22.589Z,1006.66
2019-02-14T00:23:22.587Z,1006.64
2019-02-14T00:25:54.307Z,1006.61
2019-02-14T00:26:57.813Z,1006.65
2019-02-14T00:27:54.319Z,1006.72
2019-02-14T00:30:27.473Z,1006.69
2019-02-14T00:31:26.541Z,1006.71
2019-02-14T00:32:30.541Z,1006.67
2019-02-14T00:33:48.039Z,1006.65
2019-02-14T00:34:28.006Z,1006.64
2019-02-14T00:35:48.038Z,1006.63
2019-02-14T00:36:27.973Z,1006.64
2019-02-14T00:37:27.050Z,1006.57
2019-02-14T00:38:31.540Z,1006.59
2019-02-14T00:39:27.538Z,1006.57
2019-02-14T00:40:27.539Z,1006.59
2019-02-14T00:41:27.538Z,1006.55
2019-02-14T00:42:28.044Z,1006.57
2019-02-14T00:43:28.041Z,1006.54
2019-02-14T00:44:31.540Z,1006.53
2019-02-14T00:45:28.037Z,1006.56
2019-02-14T00:46:49.542Z,1006.53
2019-02-14T00:50:34.309Z,1006.55
2019-02-14T00:51:31.317Z,1006.57
2019-02-14T00:52:31.316Z,1006.62
2019-02-14T00:53:32.750Z,1006.62
2019-02-14T00:54:31.816Z,1006.60
2019-02-14T00:55:55.813Z,1006.65
2019-02-14T00:56:31.815Z,1006.64
2019-02-14T00:57:32.315Z,1006.66
2019-02-14T00:58:32.316Z,1006.62
2019-02-14T00:59:32.323Z,1006.65
2019-02-14T01:00:32.319Z,1006.63
2019-02-14T01:01:57.815Z,1006.61
2019-02-14T01:02:32.815Z,1006.62
2019-02-14T01:03:32.815Z,1006.58
2019-02-14T01:04:32.815Z,1006.58
2019-02-14T01:05:34.251Z,1006.60
2019-02-14T01:06:33.315Z,1006.57
2019-02-14T01:07:57.316Z,1006.52
2019-02-14T01:08:33.316Z,1006.51
2019-02-14T01:09:33.814Z,1006.49
2019-02-14T01:10:33.822Z,1006.49
2019-02-14T01:11:33.814Z,1006.52
2019-02-14T01:14:09.123Z,1006.55
2019-02-14T01:15:30.129Z,1006.54
2019-02-14T01:16:09.137Z,1006.58
2019-02-14T01:17:30.651Z,1006.56
2019-02-14T01:18:12.128Z,1006.54
2019-02-14T01:19:09.631Z,1006.54
2019-02-14T01:20:09.637Z,1006.53
2019-02-14T01:21:31.128Z,1006.56
2019-02-14T01:22:31.130Z,1006.65
2019-02-14T01:23:13.627Z,1006.61
2019-02-14T01:24:31.128Z,1006.67
2019-02-14T01:25:31.625Z,1006.72
2019-02-14T01:26:11.574Z,1006.70
2019-02-14T01:27:30.895Z,1006.68
2019-02-14T01:28:16.645Z,1006.70
2019-02-14T01:29:31.653Z,1006.76
2019-02-14T01:30:32.142Z,1006.79
2019-02-14T01:31:32.128Z,1006.76
2019-02-14T01:32:11.130Z,1006.81
2019-02-14T01:33:11.127Z,1006.82
2019-02-14T01:34:14.627Z,1006.81
2019-02-14T01:35:32.626Z,1006.85
2019-02-14T01:36:11.632Z,1006.79
2019-02-14T01:37:11.629Z,1006.80
2019-02-14T01:38:33.126Z,1006.74
2019-02-14T01:39:15.626Z,1006.74
2019-02-14T01:40:12.134Z,1006.77
2019-02-14T01:41:12.126Z,1006.80
2019-02-14T01:42:12.625Z,1006.77
2019-02-14T01:43:33.625Z,1006.78
2019-02-14T01:44:38.061Z,1006.76
2019-02-14T01:45:12.625Z,1006.75
2019-02-14T01:46:34.089Z,1006.73
2019-02-14T01:47:14.066Z,1006.76
2019-02-14T01:48:13.125Z,1006.75
2019-02-14T01:49:13.126Z,1006.78
2019-02-14T01:51:48.342Z,1006.79
2019-02-14T01:52:48.350Z,1006.79
2019-02-14T01:53:48.360Z,1006.77
2019-02-14T01:54:48.849Z,1006.78
2019-02-14T01:55:52.350Z,1006.79
2019-02-14T01:56:48.850Z,1006.79
2019-02-14T01:57:48.856Z,1006.78
2019-02-14T01:59:11.801Z,1006.73
2019-02-14T01:59:51.784Z,1006.78
2019-02-14T02:00:49.349Z,1006.78
2019-02-14T02:01:52.349Z,1006.78
2019-02-14T02:02:49.348Z,1006.78
2019-02-14T02:05:50.429Z,1006.83
2019-02-14T02:06:21.585Z,1006.79
2019-02-14T02:07:25.069Z,1006.77
2019-02-14T02:08:43.071Z,1006.78
2019-02-14T02:09:21.293Z,1006.80
2019-02-14T02:10:22.077Z,1006.78
2019-02-14T02:11:22.070Z,1006.77
2019-02-14T02:12:22.072Z,1006.69
2019-02-14T02:13:26.075Z,1006.72
2019-02-14T02:14:22.571Z,1006.74
2019-02-14T02:15:21.909Z,1006.75
2019-02-14T02:16:22.587Z,1006.76
2019-02-14T02:17:22.575Z,1006.76
2019-02-14T02:18:49.010Z,1006.79
2019-02-14T02:19:23.072Z,1006.78
2019-02-14T02:20:23.076Z,1006.72
2019-02-14T02:21:23.083Z,1006.71
2019-02-14T02:22:23.070Z,1006.73
2019-02-14T02:23:23.573Z,1006.73
2019-02-14T02:25:58.737Z,1006.77
2019-02-14T02:26:58.738Z,1006.75
2019-02-14T02:27:58.737Z,1006.72
2019-02-14T02:30:57.455Z,1006.71
2019-02-14T02:31:32.466Z,1006.74
2019-02-14T02:32:30.472Z,1006.72
2019-02-14T02:33:32.963Z,1006.76
2019-02-14T02:34:32.961Z,1006.73
2019-02-14T02:35:30.961Z,1006.75
2019-02-14T02:36:34.462Z,1006.77
2019-02-14T02:37:31.462Z,1006.77
2019-02-14T02:38:31.461Z,1006.77
2019-02-14T02:39:32.412Z,1006.75
2019-02-14T02:40:52.464Z,1006.76
2019-02-14T02:41:35.460Z,1006.74
2019-02-14T02:42:31.960Z,1006.72
2019-02-14T02:43:31.965Z,1006.76
2019-02-14T02:44:31.961Z,1006.77
2019-02-14T02:45:31.959Z,1006.80
2019-02-14T02:46:32.461Z,1006.82
2019-02-14T02:49:06.924Z,1006.89
2019-02-14T02:50:06.937Z,1006.86
2019-02-14T02:51:06.927Z,1006.85
2019-02-14T02:52:28.430Z,1006.88
2019-02-14T02:53:11.429Z,1006.93
2019-02-14T02:54:07.432Z,1006.92
2019-02-14T02:55:07.429Z,1006.92
2019-02-14T02:56:07.015Z,1006.98
2019-02-14T02:57:28.928Z,1006.93
2019-02-14T02:58:38.437Z,1006.89
2019-02-14T02:59:28.929Z,1006.90
2019-02-14T03:00:07.937Z,1006.89
2019-02-14T03:03:00.644Z,1006.84
2019-02-14T03:04:04.148Z,1006.81
2019-02-14T03:04:39.650Z,1006.82
2019-02-14T03:05:40.150Z,1006.78
2019-02-14T03:06:40.152Z,1006.79
2019-02-14T03:07:40.148Z,1006.78
2019-02-14T03:08:44.147Z,1006.81
2019-02-14T03:09:40.649Z,1006.84
2019-02-14T03:10:40.671Z,1006.77
2019-02-14T03:11:40.649Z,1006.80
2019-02-14T03:12:40.651Z,1006.79
2019-02-14T03:14:05.647Z,1006.74
2019-02-14T03:14:41.160Z,1006.77
2019-02-14T03:15:41.147Z,1006.81
2019-02-14T03:16:41.147Z,1006.79
2019-02-14T03:17:41.644Z,1006.80
2019-02-14T03:18:43.084Z,1006.80
2019-02-14T03:21:16.602Z,1006.82
2019-02-14T03:22:16.610Z,1006.82
2019-02-14T03:23:16.609Z,1006.84
2019-02-14T03:24:17.114Z,1006.86
2019-02-14T03:25:20.614Z,1006.86
2019-02-14T03:26:17.109Z,1006.88
2019-02-14T03:27:17.109Z,1006.88
2019-02-14T03:28:38.610Z,1006.91
2019-02-14T03:29:17.607Z,1006.90
2019-02-14T03:30:17.639Z,1006.97
2019-02-14T03:31:21.609Z,1006.97
2019-02-14T03:32:19.089Z,1006.97
2019-02-14T03:33:18.107Z,1007.00
2019-02-14T03:34:18.115Z,1007.03
2019-02-14T03:35:39.108Z,1006.97
2019-02-14T03:36:19.494Z,1006.96
2019-02-14T03:37:42.065Z,1006.94
2019-02-14T03:38:18.610Z,1006.94
2019-02-14T03:39:18.616Z,1006.94
2019-02-14T03:40:18.607Z,1006.96
2019-02-14T03:41:40.107Z,1006.94
2019-02-14T03:42:23.107Z,1007.03
2019-02-14T03:43:19.104Z,1007.05
2019-02-14T03:44:19.107Z,1007.06
2019-02-14T03:45:40.622Z,1007.02
2019-02-14T03:46:19.607Z,1007.03
2019-02-14T03:47:19.607Z,1006.98
2019-02-14T03:48:23.106Z,1007.02
2019-02-14T03:50:51.822Z,1007.08
2019-02-14T03:51:51.837Z,1007.05
2019-02-14T03:52:51.829Z,1007.05
2019-02-14T03:53:55.341Z,1007.06
2019-02-14T03:54:52.332Z,1007.10
2019-02-14T03:55:52.333Z,1007.13
2019-02-14T03:56:52.333Z,1007.16
2019-02-14T03:57:52.833Z,1007.15
2019-02-14T03:59:17.846Z,1007.13
2019-02-14T03:59:52.834Z,1007.15
2019-02-14T04:00:56.266Z,1007.14
2019-02-14T04:01:53.329Z,1007.11
2019-02-14T04:04:49.673Z,1007.11
2019-02-14T04:05:46.184Z,1007.14
2019-02-14T04:06:46.181Z,1007.12
2019-02-14T04:07:25.680Z,1007.13
2019-02-14T04:08:46.680Z,1007.12
2019-02-14T04:09:35.683Z,1007.18
2019-02-14T04:10:25.682Z,1007.19
2019-02-14T04:11:26.179Z,1007.14
2019-02-14T04:12:26.180Z,1007.11
2019-02-14T04:13:26.180Z,1007.13
2019-02-14T04:14:26.186Z,1007.15
2019-02-14T04:15:29.681Z,1007.18
2019-02-14T04:17:58.023Z,1007.17
2019-02-14T04:18:58.081Z,1007.13
2019-02-14T04:19:58.031Z,1007.13
2019-02-14T04:21:23.030Z,1007.09
2019-02-14T04:23:29.881Z,1007.07
2019-02-14T04:24:31.354Z,1007.06
2019-02-14T04:25:29.886Z,1007.06
2019-02-14T04:26:33.886Z,1006.99
2019-02-14T04:27:30.385Z,1006.99
2019-02-14T04:28:30.389Z,1006.95
2019-02-14T04:29:30.383Z,1006.92
2019-02-14T04:30:31.840Z,1006.93
2019-02-14T04:31:31.827Z,1006.94
2019-02-14T04:32:34.886Z,1006.92
2019-02-14T04:33:30.885Z,1006.97
2019-02-14T04:34:32.363Z,1006.96
2019-02-14T04:37:02.571Z,1006.98
2019-02-14T04:39:58.848Z,1007.00
2019-02-14T04:40:37.855Z,1007.02
2019-02-14T04:41:38.790Z,1007.02
2019-02-14T04:42:59.357Z,1006.98
2019-02-14T04:43:42.363Z,1007.02
2019-02-14T04:44:38.355Z,1007.01
2019-02-14T04:45:39.791Z,1007.04
2019-02-14T04:46:59.855Z,1007.01
2019-02-14T04:47:38.856Z,1007.00
2019-02-14T04:48:41.789Z,1006.96
2019-02-14T04:49:42.071Z,1006.98
2019-02-14T04:50:38.854Z,1007.01
2019-02-14T04:53:32.071Z,1006.99
2019-02-14T04:54:32.078Z,1006.98
2019-02-14T04:55:14.578Z,1007.00
2019-02-14T04:56:32.148Z,1007.00
2019-02-14T04:57:11.575Z,1006.93
2019-02-14T04:58:32.578Z,1006.94
2019-02-14T04:59:11.575Z,1006.91
2019-02-14T05:00:17.037Z,1006.88
2019-02-14T05:01:33.078Z,1006.83
2019-02-14T05:02:33.076Z,1006.84
2019-02-14T05:03:34.019Z,1006.86
2019-02-14T05:04:13.540Z,1006.85
2019-02-14T05:05:13.511Z,1006.87
2019-02-14T05:06:44.100Z,1006.91
2019-02-14T05:07:12.576Z,1006.89
2019-02-14T05:08:12.576Z,1006.93
2019-02-14T05:09:15.513Z,1006.92
2019-02-14T05:10:12.576Z,1006.88
2019-02-14T05:11:41.540Z,1006.92
2019-02-14T05:12:13.079Z,1006.99
2019-02-14T05:13:13.079Z,1006.95
2019-02-14T05:14:13.076Z,1007.04
2019-02-14T05:15:34.575Z,1007.02
2019-02-14T05:17:48.875Z,1006.97
2019-02-14T05:18:48.870Z,1006.96
2019-02-14T05:19:54.870Z,1006.94
2019-02-14T05:20:48.458Z,1006.95
2019-02-14T05:21:52.869Z,1006.91
2019-02-14T05:22:49.369Z,1006.97
2019-02-14T05:23:49.373Z,1006.93
2019-02-14T05:24:49.370Z,1006.91
2019-02-14T05:25:49.874Z,1006.91
2019-02-14T05:27:14.370Z,1006.90
2019-02-14T05:27:49.869Z,1006.88
2019-02-14T05:28:49.871Z,1006.88
2019-02-14T05:29:50.371Z,1006.87
2019-02-14T05:30:50.373Z,1006.86
2019-02-14T05:31:50.372Z,1006.87
2019-02-14T05:32:53.869Z,1006.86
2019-02-14T05:33:50.870Z,1006.87
2019-02-14T05:34:51.810Z,1006.88
2019-02-14T05:35:50.871Z,1006.86
2019-02-14T05:37:11.868Z,1006.86
2019-02-14T05:38:15.869Z,1006.92
2019-02-14T05:38:51.367Z,1006.93
2019-02-14T05:39:51.366Z,1006.95
2019-02-14T05:40:51.367Z,1006.98
2019-02-14T05:41:51.371Z,1006.99
2019-02-14T05:42:51.868Z,1007.03
2019-02-14T05:43:55.866Z,1006.97
2019-02-14T05:45:15.801Z,1007.05
2019-02-14T05:45:51.875Z,1007.02
2019-02-14T05:46:52.367Z,1007.05
2019-02-14T05:47:52.375Z,1007.02
2019-02-14T05:48:52.367Z,1007.00
2019-02-14T05:49:57.323Z,1006.99
2019-02-14T05:50:54.305Z,1006.98
2019-02-14T05:51:58.865Z,1006.98
2019-02-14T05:52:54.320Z,1007.03
2019-02-14T05:53:52.865Z,1007.04
2019-02-14T05:54:52.875Z,1007.06
2019-02-14T05:55:56.866Z,1007.05
2019-02-14T05:56:53.365Z,1007.02
2019-02-14T05:58:14.366Z,1007.06
2019-02-14T05:58:53.372Z,1007.03
2019-02-14T06:00:13.933Z,1007.02
2019-02-14T06:00:53.029Z,1007.04
2019-02-14T06:01:56.865Z,1007.04
2019-02-14T06:02:53.867Z,1007.06
2019-02-14T06:03:53.927Z,1007.03
2019-02-14T06:06:47.084Z,1007.04
2019-02-14T06:07:29.594Z,1007.10
2019-02-14T06:08:26.092Z,1007.11
2019-02-14T06:09:26.591Z,1007.11
2019-02-14T06:10:26.594Z,1007.09
2019-02-14T06:11:26.591Z,1007.08
2019-02-14T06:12:30.591Z,1007.13
2019-02-14T06:13:27.090Z,1007.08
2019-02-14T06:14:27.097Z,1007.12
2019-02-14T06:15:27.090Z,1007.09
2019-02-14T06:16:27.092Z,1007.16
2019-02-14T06:17:27.590Z,1007.18
2019-02-14T06:18:51.598Z,1007.19
2019-02-14T06:19:48.594Z,1007.22
2019-02-14T06:20:48.594Z,1007.16
2019-02-14T06:21:28.089Z,1007.22
2019-02-14T06:22:28.089Z,1007.26
2019-02-14T06:23:32.090Z,1007.23
2019-02-14T06:24:28.090Z,1007.22
2019-02-14T06:25:28.590Z,1007.20
2019-02-14T06:26:49.591Z,1007.23
2019-02-14T06:27:28.588Z,1007.23
2019-02-14T06:28:28.589Z,1007.28
2019-02-14T06:29:32.092Z,1007.31
2019-02-14T06:30:50.087Z,1007.38
2019-02-14T06:31:29.104Z,1007.37
2019-02-14T06:32:29.088Z,1007.44
2019-02-14T06:33:50.588Z,1007.52
2019-02-14T06:34:33.088Z,1007.51
2019-02-14T06:35:50.593Z,1007.54
2019-02-14T06:36:29.587Z,1007.55
2019-02-14T06:37:44.094Z,1007.56
2019-02-14T06:38:53.088Z,1007.60
2019-02-14T06:39:30.096Z,1007.59
2019-02-14T06:40:33.397Z,1007.60
2019-02-14T06:41:51.085Z,1007.62
2019-02-14T06:42:51.587Z,1007.59
2019-02-14T06:43:51.591Z,1007.59
2019-02-14T06:44:31.562Z,1007.52
2019-02-14T06:45:30.601Z,1007.57
2019-02-14T06:46:34.088Z,1007.57
2019-02-14T06:47:52.090Z,1007.62
2019-02-14T06:48:52.087Z,1007.67
2019-02-14T06:49:30.429Z,1007.68
2019-02-14T06:50:52.091Z,1007.74
2019-02-14T06:51:35.086Z,1007.74
2019-02-14T06:52:31.594Z,1007.79
2019-02-14T06:53:52.586Z,1007.76
2019-02-14T06:54:31.586Z,1007.76
2019-02-14T06:55:31.048Z,1007.82
2019-02-14T06:56:56.586Z,1007.84
2019-02-14T06:57:32.086Z,1007.85
2019-02-14T06:58:32.137Z,1007.85
2019-02-14T06:59:32.097Z,1007.90
2019-02-14T07:00:34.062Z,1007.91
2019-02-14T07:01:32.086Z,1007.92
2019-02-14T07:04:07.803Z,1008.05
2019-02-14T07:05:07.810Z,1008.04
2019-02-14T07:06:43.311Z,1008.03
2019-02-14T07:07:08.311Z,1008.05
2019-02-14T07:08:32.809Z,1008.02
2019-02-14T07:09:08.310Z,1008.00
2019-02-14T07:10:14.816Z,1007.99
2019-02-14T07:11:13.744Z,1008.03
2019-02-14T07:12:08.818Z,1008.08
2019-02-14T07:13:09.784Z,1008.06
2019-02-14T07:14:12.815Z,1008.10
2019-02-14T07:15:15.312Z,1008.12
2019-02-14T07:16:30.309Z,1008.14
2019-02-14T07:17:12.246Z,1008.14
2019-02-14T07:18:09.308Z,1008.13
2019-02-14T07:19:09.831Z,1008.17
2019-02-14T07:20:13.811Z,1008.16
2019-02-14T07:21:09.809Z,1008.18
2019-02-14T07:22:09.809Z,1008.19
2019-02-14T07:23:45.309Z,1008.18
2019-02-14T07:24:10.359Z,1008.26
2019-02-14T07:25:10.309Z,1008.24
2019-02-14T07:26:13.811Z,1008.25
2019-02-14T07:28:43.969Z,1008.26
2019-02-14T07:29:44.541Z,1008.26
2019-02-14T07:30:43.493Z,1008.23
2019-02-14T07:31:46.034Z,1008.19
2019-02-14T07:32:43.035Z,1008.15
2019-02-14T07:34:04.159Z,1008.13
2019-02-14T07:34:43.036Z,1008.08
2019-02-14T07:35:43.036Z,1008.04
2019-02-14T07:36:46.534Z,1008.07
2019-02-14T07:37:42.746Z,1008.10
2019-02-14T07:39:03.811Z,1008.12
2019-02-14T07:39:42.903Z,1008.10
2019-02-14T07:40:43.534Z,1008.14
2019-02-14T07:41:47.533Z,1008.17
2019-02-14T07:42:46.034Z,1008.19
2019-02-14T07:43:44.032Z,1008.18
2019-02-14T07:44:44.033Z,1008.22
2019-02-14T07:46:05.533Z,1008.27
2019-02-14T07:46:44.569Z,1008.29
2019-02-14T07:48:09.539Z,1008.36
2019-02-14T07:48:44.532Z,1008.38
2019-02-14T07:49:45.035Z,1008.41
2019-02-14T07:51:06.966Z,1008.45
2019-02-14T07:52:06.033Z,1008.45
2019-02-14T07:52:44.506Z,1008.46
2019-02-14T07:53:48.532Z,1008.46
2019-02-14T07:54:47.511Z,1008.41
2019-02-14T07:56:06.534Z,1008.44
2019-02-14T07:56:45.538Z,1008.45
2019-02-14T07:57:45.533Z,1008.39
2019-02-14T07:58:49.535Z,1008.35
2019-02-14T08:01:38.871Z,1008.30
2019-02-14T08:02:17.342Z,1008.31
2019-02-14T08:03:18.404Z,1008.34
2019-02-14T08:04:27.380Z,1008.33
2019-02-14T08:05:39.379Z,1008.34
2019-02-14T08:06:18.380Z,1008.36
2019-02-14T08:07:18.405Z,1008.36
2019-02-14T08:08:18.881Z,1008.41
2019-02-14T08:09:43.383Z,1008.40
2019-02-14T08:10:18.884Z,1008.39
2019-02-14T08:11:39.880Z,1008.44
2019-02-14T08:12:19.378Z,1008.42
2019-02-14T08:13:18.591Z,1008.42
2019-02-14T08:14:19.383Z,1008.39
2019-02-14T08:15:23.380Z,1008.45
2019-02-14T08:16:20.381Z,1008.39
2019-02-14T08:17:25.883Z,1008.36
2019-02-14T08:18:19.882Z,1008.37
2019-02-14T08:20:54.319Z,1008.29
2019-02-14T08:21:51.354Z,1008.29
2019-02-14T08:22:51.854Z,1008.27
2019-02-14T08:23:51.855Z,1008.30
2019-02-14T08:24:51.193Z,1008.28
2019-02-14T08:25:53.324Z,1008.32
2019-02-14T08:27:18.789Z,1008.28
2019-02-14T08:27:52.358Z,1008.24
2019-02-14T08:28:52.350Z,1008.26
2019-02-14T08:29:52.354Z,1008.26
2019-02-14T08:30:52.353Z,1008.22
2019-02-14T08:31:58.853Z,1008.28
2019-02-14T08:33:17.788Z,1008.38
2019-02-14T08:35:45.326Z,1008.45
2019-02-14T08:36:24.333Z,1008.41
2019-02-14T08:37:46.133Z,1008.40
2019-02-14T08:38:28.841Z,1008.41
2019-02-14T08:39:24.834Z,1008.41
2019-02-14T08:40:24.833Z,1008.39
2019-02-14T08:41:24.300Z,1008.37
2019-02-14T08:43:59.499Z,1008.32
2019-02-14T08:44:55.962Z,1008.33
2019-02-14T08:45:57.022Z,1008.25
2019-02-14T08:46:56.110Z,1008.27
2019-02-14T08:47:57.022Z,1008.25
2019-02-14T08:48:56.240Z,1008.23
2019-02-14T08:50:00.022Z,1008.19
2019-02-14T08:50:57.022Z,1008.18
2019-02-14T08:51:57.521Z,1008.16
2019-02-14T08:52:56.760Z,1008.17
2019-02-14T08:53:57.521Z,1008.13
2019-02-14T08:55:22.529Z,1008.22
2019-02-14T08:55:57.522Z,1008.16
2019-02-14T08:56:57.122Z,1008.16
2019-02-14T08:57:58.040Z,1008.18
2019-02-14T08:59:19.021Z,1008.16
2019-02-14T08:59:57.500Z,1008.20
2019-02-14T09:01:01.479Z,1008.22
2019-02-14T09:01:58.521Z,1008.25
2019-02-14T09:02:59.501Z,1008.24
2019-02-14T09:03:58.520Z,1008.23
2019-02-14T09:04:58.521Z,1008.23
2019-02-14T09:06:04.520Z,1008.21
2019-02-14T09:06:58.235Z,1008.18
2019-02-14T09:07:59.021Z,1008.16
2019-02-14T09:08:59.020Z,1008.17
2019-02-14T09:09:59.047Z,1008.21
2019-02-14T09:11:24.021Z,1008.18
2019-02-14T09:11:58.740Z,1008.19
2019-02-14T09:12:59.520Z,1008.19
2019-02-14T09:13:58.993Z,1008.24
2019-02-14T09:16:35.220Z,1008.12
2019-02-14T09:17:37.728Z,1008.11
2019-02-14T09:20:03.237Z,1008.08
2019-02-14T09:21:03.324Z,1008.13
2019-02-14T09:22:07.257Z,1008.15
2019-02-14T09:25:00.048Z,1008.20
2019-02-14T09:25:36.110Z,1008.24
2019-02-14T09:26:57.110Z,1008.29
2019-02-14T09:29:32.461Z,1008.23
2019-02-14T09:30:38.480Z,1008.21
2019-02-14T09:31:32.470Z,1008.19
2019-02-14T09:32:26.403Z,1008.15
2019-02-14T09:33:35.970Z,1008.20
2019-02-14T09:34:33.411Z,1008.15
2019-02-14T09:35:46.969Z,1008.21
2019-02-14T09:36:13.968Z,1008.22
2019-02-14T09:37:17.969Z,1008.26
2019-02-14T09:38:36.475Z,1008.25
2019-02-14T09:39:26.468Z,1008.33
2019-02-14T09:40:33.471Z,1008.34
2019-02-14T09:41:12.468Z,1008.38
2019-02-14T09:42:33.037Z,1008.33
2019-02-14T09:43:37.967Z,1008.30
2019-02-14T09:44:14.433Z,1008.32
2019-02-14T09:45:14.985Z,1008.27
2019-02-14T09:46:12.308Z,1008.25
2019-02-14T09:47:33.967Z,1008.24
2019-02-14T09:48:12.971Z,1008.28
2019-02-14T09:49:16.468Z,1008.31
2019-02-14T09:51:44.819Z,1008.31
2019-02-14T09:52:44.852Z,1008.27
2019-02-14T09:55:20.420Z,1008.31
2019-02-14T09:56:38.429Z,1008.28
2019-02-14T09:57:44.442Z,1008.24
2019-02-14T09:58:19.384Z,1008.22
2019-02-14T09:59:39.906Z,1008.25
2019-02-14T10:00:21.104Z,1008.25
2019-02-14T10:01:17.927Z,1008.20
2019-02-14T10:02:38.925Z,1008.19
2019-02-14T10:03:17.927Z,1008.18
2019-02-14T10:04:39.429Z,1008.20
2019-02-14T10:05:42.531Z,1008.23
2019-02-14T10:06:39.424Z,1008.24
2019-02-14T10:07:18.426Z,1008.25
2019-02-14T10:09:50.174Z,1008.36
2019-02-14T10:10:53.652Z,1008.35
2019-02-14T10:11:50.153Z,1008.33
2019-02-14T10:12:50.653Z,1008.29
2019-02-14T10:15:22.001Z,1008.24
2019-02-14T10:16:26.031Z,1008.22
2019-02-14T10:17:24.475Z,1008.21
2019-02-14T10:19:53.692Z,1008.26
2019-02-14T10:20:55.150Z,1008.25
2019-02-14T10:21:57.706Z,1008.26
2019-02-14T10:22:53.696Z,1008.29
2019-02-14T10:25:39.429Z,1008.22
2019-02-14T10:26:25.426Z,1008.22
2019-02-14T10:27:51.863Z,1008.15
2019-02-14T10:29:58.588Z,1008.05
2019-02-14T10:30:57.154Z,1008.07
2019-02-14T10:31:57.161Z,1008.08
2019-02-14T10:34:53.331Z,1008.17
2019-02-14T10:35:32.341Z,1008.18
2019-02-14T10:36:32.344Z,1008.16
2019-02-14T10:37:32.870Z,1008.17
2019-02-14T10:38:57.351Z,1008.13
2019-02-14T10:39:32.842Z,1008.07
2019-02-14T10:40:32.834Z,1008.05
2019-02-14T10:41:33.349Z,1008.00
2019-02-14T10:42:33.340Z,1007.99
2019-02-14T10:43:33.338Z,1008.02
2019-02-14T10:44:37.341Z,1008.03
2019-02-14T10:45:47.841Z,1008.09
2019-02-14T10:48:07.146Z,1008.13
2019-02-14T10:49:26.709Z,1008.16
2019-02-14T10:50:09.146Z,1008.19
2019-02-14T10:52:37.376Z,1008.13
2019-02-14T10:53:58.382Z,1008.13
2019-02-14T10:54:37.391Z,1008.14
2019-02-14T10:57:13.655Z,1008.15
2019-02-14T10:58:34.665Z,1008.19
2019-02-14T10:59:15.129Z,1008.18
2019-02-14T11:00:16.174Z,1008.21
2019-02-14T11:01:16.165Z,1008.28
2019-02-14T11:02:34.509Z,1008.27
2019-02-14T11:03:14.165Z,1008.29
2019-02-14T11:04:14.163Z,1008.28
2019-02-14T11:05:14.672Z,1008.28
2019-02-14T11:06:18.671Z,1008.28
2019-02-14T11:08:46.651Z,1008.24
2019-02-14T11:09:46.649Z,1008.23
2019-02-14T11:11:14.140Z,1008.22
2019-02-14T11:11:50.149Z,1008.26
2019-02-14T11:12:48.619Z,1008.25
2019-02-14T11:13:47.161Z,1008.21
2019-02-14T11:15:09.160Z,1008.19
2019-02-14T11:17:22.048Z,1008.29
2019-02-14T11:18:18.763Z,1008.33
2019-02-14T11:19:19.392Z,1008.36
2019-02-14T11:20:40.926Z,1008.42
2019-02-14T11:21:19.890Z,1008.39
2019-02-14T11:22:23.895Z,1008.49
2019-02-14T11:24:50.778Z,1008.50
2019-02-14T11:25:53.502Z,1008.52
2019-02-14T11:26:51.501Z,1008.72
2019-02-14T11:27:55.502Z,1008.69
2019-02-14T11:28:51.216Z,1008.73
2019-02-14T11:29:52.002Z,1008.65
2019-02-14T11:30:52.030Z,1008.60
2019-02-14T11:31:52.508Z,1008.74
2019-02-14T11:32:52.514Z,1008.88
2019-02-14T11:33:56.497Z,1008.39
2019-02-14T11:34:52.501Z,1008.42
2019-02-14T11:35:53.005Z,1008.19
2019-02-14T11:36:53.034Z,1008.31
2019-02-14T11:37:53.002Z,1008.43
2019-02-14T11:38:53.007Z,1008.56
2019-02-14T11:41:27.934Z,1008.40
2019-02-14T11:42:30.058Z,1008.38
2019-02-14T11:43:27.949Z,1008.49
2019-02-14T11:44:28.907Z,1008.47
2019-02-14T11:45:52.383Z,1008.55
2019-02-14T11:46:51.959Z,1008.28
2019-02-14T11:47:28.440Z,1008.27
2019-02-14T11:48:28.442Z,1008.28
2019-02-14T11:49:28.939Z,1008.23
2019-02-14T11:50:28.960Z,1008.14
2019-02-14T11:51:52.938Z,1008.20
2019-02-14T11:52:28.936Z,1008.33
2019-02-14T11:53:50.445Z,1008.36
2019-02-14T11:54:29.438Z,1008.29
2019-02-14T11:55:29.447Z,1008.19
2019-02-14T11:59:48.262Z,1008.03
2019-02-14T12:02:05.130Z,1007.80
2019-02-14T12:03:20.271Z,1007.84
2019-02-14T12:03:59.266Z,1007.86
2019-02-14T12:04:59.766Z,1007.76
2019-02-14T12:05:59.773Z,1007.84
2019-02-14T12:06:59.766Z,1008.06
2019-02-14T12:08:03.767Z,1007.81
2019-02-14T12:09:06.266Z,1007.78
2019-02-14T12:10:02.267Z,1007.85
2019-02-14T12:11:23.701Z,1007.65
2019-02-14T12:12:00.293Z,1007.71
2019-02-14T12:13:00.767Z,1007.74
2019-02-14T12:14:03.785Z,1007.75
2019-02-14T12:15:00.774Z,1007.64
2019-02-14T12:16:00.766Z,1007.81
2019-02-14T12:18:34.516Z,1007.87
2019-02-14T12:19:34.655Z,1007.85
2019-02-14T12:20:32.527Z,1007.65
2019-02-14T12:21:35.027Z,1007.47
2019-02-14T12:22:33.025Z,1007.38
2019-02-14T12:23:33.097Z,1007.39
2019-02-14T12:24:35.839Z,1007.51
2019-02-14T12:28:36.177Z,1007.77
2019-02-14T12:30:02.121Z,1007.97
2019-02-14T12:30:35.659Z,1007.97
2019-02-14T12:32:00.661Z,1007.98
2019-02-14T12:32:36.685Z,1007.97
2019-02-14T12:33:36.684Z,1007.91
2019-02-14T12:34:40.686Z,1007.81
2019-02-14T12:35:37.228Z,1007.30
2019-02-14T12:36:37.192Z,1007.39
2019-02-14T12:37:37.189Z,1007.48
2019-02-14T12:38:37.186Z,1007.49
2019-02-14T12:40:02.186Z,1007.51
2019-02-14T12:42:11.069Z,1007.58
2019-02-14T12:43:09.075Z,1007.34
2019-02-14T12:44:30.577Z,1007.43
2019-02-14T12:45:20.420Z,1007.28
2019-02-14T12:46:30.576Z,1007.42
2019-02-14T12:47:09.575Z,1007.36
2019-02-14T12:48:09.183Z,1007.38
2019-02-14T12:49:10.074Z,1007.26
2019-02-14T12:50:35.838Z,1007.20
2019-02-14T12:51:10.093Z,1007.17
2019-02-14T12:52:12.108Z,1007.16
2019-02-14T12:53:12.045Z,1007.14
2019-02-14T12:54:09.891Z,1007.09
2019-02-14T12:55:10.576Z,1007.00
2019-02-14T12:56:15.076Z,1006.99
2019-02-14T12:57:10.185Z,1006.95
2019-02-14T12:58:32.077Z,1007.00
2019-02-14T12:59:17.115Z,1007.06
2019-02-14T13:00:11.079Z,1007.05
2019-02-14T13:01:37.077Z,1007.08
2019-02-14T13:03:43.031Z,1007.06
2019-02-14T13:04:42.980Z,1007.04
2019-02-14T13:05:42.973Z,1007.09
2019-02-14T13:06:45.859Z,1006.94
2019-02-14T13:07:43.472Z,1006.90
2019-02-14T13:08:43.468Z,1006.87
2019-02-14T13:09:42.965Z,1006.86
2019-02-14T13:10:44.903Z,1006.93
2019-02-14T13:12:08.969Z,1006.92
2019-02-14T13:12:45.412Z,1007.01
2019-02-14T13:13:48.287Z,1007.02
2019-02-14T13:14:44.549Z,1006.98
2019-02-14T13:15:44.480Z,1006.91
2019-02-14T13:16:44.470Z,1006.81
2019-02-14T13:19:20.151Z,1006.68
2019-02-14T13:20:20.160Z,1006.87
2019-02-14T13:21:34.664Z,1006.89
2019-02-14T13:22:34.659Z,1006.79
2019-02-14T13:23:24.160Z,1006.71
2019-02-14T13:24:21.660Z,1006.82
2019-02-14T13:25:21.168Z,1006.87
2019-02-14T13:26:21.169Z,1006.79
2019-02-14T13:27:22.599Z,1006.69
2019-02-14T13:28:30.659Z,1006.77
2019-02-14T13:30:56.368Z,1006.97
2019-02-14T13:31:52.921Z,1006.99
2019-02-14T13:32:52.531Z,1007.05